createdAt,value
2022-11-21T00:01:27.778Z,17.13
2022-11-21T00:03:54.673Z,15.63
2022-11-21T00:06:23.508Z,14.80
2022-11-21T00:08:50.684Z,15.68
2022-11-21T00:11:17.692Z,16.58
2022-11-21T00:13:45.087Z,14.85
2022-11-21T00:16:15.442Z,16.17
2022-11-21T00:18:44.187Z,14.85
2022-11-21T00:21:17.657Z,16.42
2022-11-21T00:23:46.142Z,14.73
2022-11-21T00:26:15.657Z,15.02
2022-11-21T00:28:42.681Z,15.38
2022-11-21T00:31:22.038Z,14.65
2022-11-21T00:33:48.841Z,15.95
2022-11-21T00:36:15.572Z,15.02
2022-11-21T00:38:42.273Z,17.17
2022-11-21T00:41:08.996Z,15.05
2022-11-21T00:43:35.779Z,15.88
2022-11-21T00:46:03.325Z,16.20
2022-11-21T00:48:31.708Z,15.95
2022-11-21T00:51:00.445Z,17.05
2022-11-21T00:53:27.270Z,17.02
2022-11-21T00:55:54.016Z,16.42
2022-11-21T00:58:20.909Z,15.43
2022-11-21T01:00:47.637Z,15.77
2022-11-21T01:03:14.489Z,15.27
2022-11-21T01:05:41.218Z,16.52
2022-11-21T01:08:07.980Z,15.18
2022-11-21T01:10:35.947Z,15.75
2022-11-21T01:13:03.075Z,16.27
2022-11-21T01:15:29.819Z,17.63
2022-11-21T01:17:56.529Z,15.73
2022-11-21T01:20:23.225Z,15.13
2022-11-21T01:22:49.941Z,16.35
2022-11-21T01:25:16.725Z,16.42
2022-11-21T01:27:43.431Z,15.55
2022-11-21T01:30:11.866Z,15.43
2022-11-21T01:32:38.649Z,16.00
2022-11-21T01:35:06.045Z,13.18
2022-11-21T01:37:32.762Z,16.23
2022-11-21T01:39:59.493Z,16.27
2022-11-21T01:42:26.186Z,14.90
2022-11-21T01:44:54.403Z,15.55
2022-11-21T01:47:22.779Z,15.43
2022-11-21T01:49:53.009Z,14.95
2022-11-21T01:52:31.852Z,14.70
2022-11-21T01:55:05.682Z,15.60
2022-11-21T01:57:44.010Z,16.70
2022-11-21T02:00:24.581Z,15.57
2022-11-21T02:03:02.489Z,16.98
2022-11-21T02:05:35.468Z,15.30
2022-11-21T02:08:19.823Z,15.82
2022-11-21T02:16:19.339Z,13.20
2022-11-21T02:18:46.129Z,17.60
2022-11-21T02:21:41.263Z,17.02
2022-11-21T02:24:56.412Z,17.27
2022-11-21T02:27:23.892Z,16.42
2022-11-21T02:29:50.677Z,15.30
2022-11-21T02:32:33.153Z,15.63
2022-11-21T02:34:59.925Z,15.23
2022-11-21T02:37:26.885Z,16.20
2022-11-21T02:39:54.895Z,16.75
2022-11-21T02:42:42.118Z,16.70
2022-11-21T02:45:33.258Z,15.80
2022-11-21T02:48:03.918Z,16.38
2022-11-21T02:50:34.705Z,16.42
2022-11-21T02:53:02.051Z,14.40
2022-11-21T02:55:29.224Z,16.45
2022-11-21T02:57:59.005Z,16.17
2022-11-21T03:00:28.552Z,16.60
2022-11-21T03:02:56.022Z,14.77
2022-11-21T03:05:23.397Z,17.25
2022-11-21T03:07:50.517Z,14.25
2022-11-21T03:10:17.710Z,16.02
2022-11-21T03:12:44.540Z,17.55
2022-11-21T03:15:14.320Z,16.42
2022-11-21T03:17:42.070Z,15.60
2022-11-21T03:20:10.559Z,16.83
2022-11-21T03:22:37.408Z,15.23
2022-11-21T03:25:04.536Z,15.80
2022-11-21T03:27:31.266Z,14.60
2022-11-21T03:29:58.081Z,16.52
2022-11-21T03:32:25.203Z,15.10
2022-11-21T03:34:51.916Z,15.43
2022-11-21T03:37:18.804Z,15.85
2022-11-21T03:39:45.544Z,15.38
2022-11-21T03:42:12.383Z,16.90
2022-11-21T03:44:39.071Z,15.15
2022-11-21T03:47:05.784Z,16.42
2022-11-21T03:49:32.473Z,16.60
2022-11-21T03:51:59.216Z,15.48
2022-11-21T03:54:26.284Z,15.82
2022-11-21T03:56:53.792Z,16.10
2022-11-21T03:59:20.535Z,17.60
2022-11-21T04:01:47.311Z,15.93
2022-11-21T04:04:14.294Z,16.55
2022-11-21T04:06:41.061Z,16.77
2022-11-21T04:09:07.824Z,17.55
2022-11-21T04:11:34.590Z,18.13
2022-11-21T04:14:01.374Z,18.77
2022-11-21T04:16:28.173Z,17.70
2022-11-21T04:18:54.872Z,16.10
2022-11-21T04:21:21.607Z,17.77
2022-11-21T04:23:48.325Z,17.88
2022-11-21T04:26:15.086Z,16.98
2022-11-21T04:28:41.826Z,17.02
2022-11-21T04:31:11.152Z,17.90
2022-11-21T04:33:39.553Z,17.45
2022-11-21T04:36:09.024Z,17.77
2022-11-21T04:38:36.841Z,18.35
2022-11-21T04:41:04.656Z,16.52
2022-11-21T04:43:31.413Z,16.83
2022-11-21T04:45:58.101Z,16.63
2022-11-21T04:48:24.839Z,17.15
2022-11-21T04:50:51.669Z,16.08
2022-11-21T04:53:18.411Z,16.58
2022-11-21T04:55:45.216Z,16.45
2022-11-21T04:58:12.173Z,16.67
2022-11-21T05:00:38.982Z,17.55
2022-11-21T05:03:07.169Z,18.00
2022-11-21T05:05:34.094Z,16.27
2022-11-21T05:08:00.849Z,16.33
2022-11-21T05:10:27.814Z,18.98
2022-11-21T05:13:19.787Z,17.10
2022-11-21T05:15:51.625Z,16.27
2022-11-21T05:18:20.076Z,20.60
2022-11-21T05:20:46.917Z,16.00
2022-11-21T05:23:13.952Z,17.48
2022-11-21T05:25:41.023Z,16.95
2022-11-21T05:28:07.777Z,15.93
2022-11-21T05:30:34.706Z,16.23
2022-11-21T05:33:01.460Z,15.38
2022-11-21T05:35:28.246Z,17.13
2022-11-21T05:37:58.959Z,16.08
2022-11-21T05:40:26.305Z,17.83
2022-11-21T05:43:11.469Z,16.35
2022-11-21T05:45:38.241Z,17.73
2022-11-21T05:48:07.879Z,16.80
2022-11-21T05:50:37.733Z,15.82
2022-11-21T05:53:05.326Z,17.38
2022-11-21T05:55:34.368Z,16.48
2022-11-21T05:58:01.266Z,18.40
2022-11-21T06:00:29.041Z,15.32
2022-11-21T06:03:14.645Z,17.88
2022-11-21T06:05:41.580Z,17.50
2022-11-21T06:08:08.300Z,17.85
2022-11-21T06:10:35.084Z,18.25
2022-11-21T06:13:02.816Z,15.93
2022-11-21T06:15:29.927Z,16.98
2022-11-21T06:17:56.657Z,18.98
2022-11-21T06:20:23.452Z,18.77
2022-11-21T06:22:50.200Z,19.25
2022-11-21T06:25:17.058Z,18.02
2022-11-21T06:27:43.824Z,18.70
2022-11-21T06:30:10.992Z,16.73
2022-11-21T06:32:38.343Z,17.42
2022-11-21T06:35:05.689Z,17.75
2022-11-21T06:37:32.415Z,20.92
2022-11-21T06:39:59.809Z,19.77
2022-11-21T06:42:26.743Z,18.75
2022-11-21T06:44:53.468Z,18.00
2022-11-21T06:47:20.396Z,17.65
2022-11-21T06:49:47.455Z,17.77
2022-11-21T06:52:14.196Z,17.77
2022-11-21T06:54:41.059Z,17.95
2022-11-21T06:57:07.889Z,18.83
2022-11-21T06:59:34.798Z,20.17
2022-11-21T07:02:01.724Z,18.52
2022-11-21T07:04:28.695Z,18.08
2022-11-21T07:06:55.670Z,17.65
2022-11-21T07:09:37.675Z,17.40
2022-11-21T07:12:23.738Z,16.63
2022-11-21T07:14:51.025Z,19.08
2022-11-21T07:17:17.786Z,27.48
2022-11-21T07:19:44.564Z,22.30
2022-11-21T07:22:11.284Z,21.83
2022-11-21T07:24:38.259Z,18.80
2022-11-21T07:27:05.015Z,18.90
2022-11-21T07:29:31.769Z,18.23
2022-11-21T07:31:58.542Z,19.17
2022-11-21T07:34:25.318Z,18.92
2022-11-21T07:36:52.062Z,20.65
2022-11-21T07:39:19.606Z,16.95
2022-11-21T07:41:46.530Z,19.10
2022-11-21T07:44:13.265Z,19.35
2022-11-21T07:46:40.012Z,17.27
2022-11-21T07:49:07.462Z,17.95
2022-11-21T07:51:34.242Z,17.65
2022-11-21T07:54:01.029Z,17.50
2022-11-21T07:56:27.805Z,19.88
2022-11-21T07:58:54.558Z,19.73
2022-11-21T08:01:21.392Z,18.70
2022-11-21T08:03:48.174Z,18.38
2022-11-21T08:06:15.156Z,18.70
2022-11-21T08:08:41.874Z,22.27
2022-11-21T08:11:08.627Z,19.38
2022-11-21T08:13:35.757Z,20.70
2022-11-21T08:16:04.463Z,21.00
2022-11-21T08:18:31.820Z,21.88
2022-11-21T08:21:02.405Z,23.20
2022-11-21T08:23:29.403Z,23.75
2022-11-21T08:25:56.136Z,26.40
2022-11-21T08:28:22.964Z,24.30
2022-11-21T08:30:50.109Z,24.58
2022-11-21T08:33:17.061Z,24.70
2022-11-21T08:35:43.782Z,22.00
2022-11-21T08:38:10.819Z,22.63
2022-11-21T08:40:37.600Z,23.98
2022-11-21T08:43:08.016Z,23.02
2022-11-21T08:45:36.763Z,22.50
2022-11-21T08:48:15.866Z,20.27
2022-11-21T08:50:46.779Z,22.02
2022-11-21T08:53:19.384Z,19.92
2022-11-21T08:55:49.952Z,21.40
2022-11-21T08:58:16.719Z,19.80
2022-11-21T09:00:43.469Z,22.13
2022-11-21T09:03:19.025Z,20.48
2022-11-21T09:05:48.623Z,23.58
2022-11-21T09:08:15.337Z,23.17
2022-11-21T09:10:42.116Z,22.65
2022-11-21T09:13:08.864Z,23.95
2022-11-21T09:15:54.886Z,21.60
2022-11-21T09:18:21.608Z,23.80
2022-11-21T09:20:48.428Z,24.63
2022-11-21T09:23:16.668Z,21.48
2022-11-21T09:25:44.539Z,23.98
2022-11-21T09:28:13.543Z,22.65
2022-11-21T09:30:42.241Z,20.27
2022-11-21T09:33:16.810Z,20.33
2022-11-21T09:35:44.160Z,21.45
2022-11-21T09:38:11.145Z,22.08
2022-11-21T09:40:44.888Z,20.30
2022-11-21T09:43:46.586Z,20.50
2022-11-21T09:46:21.699Z,21.85
2022-11-21T09:49:00.348Z,23.88
2022-11-21T09:51:31.230Z,21.80
2022-11-21T09:54:13.467Z,25.95
2022-11-21T09:56:43.363Z,24.40
2022-11-21T09:59:35.044Z,24.27
2022-11-21T10:02:23.596Z,22.27
2022-11-21T10:04:54.861Z,21.40
2022-11-21T10:07:32.636Z,22.60
2022-11-21T10:10:29.197Z,21.00
2022-11-21T10:13:25.148Z,20.45
2022-11-21T10:15:51.784Z,19.55
2022-11-21T10:18:53.917Z,19.08
2022-11-21T10:21:35.141Z,19.52
2022-11-21T10:24:40.776Z,19.45
2022-11-21T10:27:21.041Z,18.45
2022-11-21T10:30:01.080Z,18.08
2022-11-21T10:32:37.994Z,16.25
2022-11-21T10:35:30.486Z,17.38
2022-11-21T10:38:01.743Z,19.42
2022-11-21T10:40:44.228Z,18.33
2022-11-21T10:43:59.514Z,18.75
2022-11-21T10:49:08.097Z,16.95
2022-11-21T10:51:48.078Z,17.10
2022-11-21T10:54:33.438Z,19.00
2022-11-21T10:57:12.609Z,17.88
2022-11-21T10:59:39.864Z,17.70
2022-11-21T11:02:12.403Z,17.83
2022-11-21T11:04:47.297Z,17.45
2022-11-21T11:07:27.805Z,18.58
2022-11-21T11:10:27.616Z,16.92
2022-11-21T11:13:44.694Z,15.60
2022-11-21T11:16:13.457Z,17.02
2022-11-21T11:19:10.212Z,14.00
2022-11-21T11:21:40.793Z,14.73
2022-11-21T11:24:26.013Z,16.95
2022-11-21T11:27:01.125Z,14.65
2022-11-21T11:29:32.177Z,14.75
2022-11-21T11:31:59.428Z,14.00
2022-11-21T11:34:37.849Z,15.80
2022-11-21T11:37:13.601Z,14.43
2022-11-21T11:40:16.221Z,15.23
2022-11-21T11:43:36.419Z,17.70
2022-11-21T11:47:04.551Z,14.80
2022-11-21T11:50:15.392Z,13.40
2022-11-21T11:53:41.989Z,14.80
2022-11-21T11:56:19.890Z,13.70
2022-11-21T11:59:09.705Z,15.32
2022-11-21T12:01:48.629Z,13.20
2022-11-21T12:04:25.000Z,12.75
2022-11-21T12:10:11.410Z,12.63
2022-11-21T12:13:09.595Z,12.20
2022-11-21T12:15:50.763Z,11.60
2022-11-21T12:18:33.984Z,14.10
2022-11-21T12:21:17.113Z,14.60
2022-11-21T12:23:51.165Z,12.70
2022-11-21T12:29:10.352Z,10.27
2022-11-21T12:32:11.171Z,12.25
2022-11-21T12:35:02.608Z,10.93
2022-11-21T12:38:14.696Z,10.82
2022-11-21T12:41:40.799Z,11.30
2022-11-21T12:44:54.167Z,11.07
2022-11-21T12:48:34.893Z,11.02
2022-11-21T12:51:56.501Z,9.27
2022-11-21T12:55:04.152Z,9.80
2022-11-21T12:58:19.876Z,8.52
2022-11-21T13:00:59.104Z,8.82
2022-11-21T13:03:45.087Z,9.45
2022-11-21T13:06:23.920Z,8.48
2022-11-21T13:08:54.064Z,9.55
2022-11-21T13:11:59.239Z,9.88
2022-11-21T13:14:43.505Z,8.00
2022-11-21T13:17:36.021Z,9.55
2022-11-21T13:20:25.938Z,10.50
2022-11-21T13:23:07.747Z,9.57
2022-11-21T13:25:39.710Z,9.95
2022-11-21T13:28:18.682Z,12.50
2022-11-21T13:30:53.961Z,9.88
2022-11-21T13:33:36.141Z,10.45
2022-11-21T13:36:30.042Z,11.20
2022-11-21T13:39:00.070Z,11.90
2022-11-21T13:41:54.475Z,12.75
2022-11-21T13:44:33.410Z,11.18
2022-11-21T13:47:29.333Z,11.20
2022-11-21T13:50:23.592Z,10.32
2022-11-21T13:53:42.119Z,10.57
2022-11-21T13:56:53.446Z,10.63
2022-11-21T13:59:47.047Z,12.43
2022-11-21T14:02:48.138Z,10.00
2022-11-21T14:05:55.113Z,9.55
2022-11-21T14:08:27.066Z,12.18
2022-11-21T14:10:56.428Z,12.05
2022-11-21T14:13:31.635Z,11.02
2022-11-21T14:16:36.642Z,11.60
2022-11-21T14:21:34.072Z,11.13
2022-11-21T14:24:13.294Z,12.48
2022-11-21T14:26:45.585Z,11.48
2022-11-21T14:29:40.844Z,11.07
2022-11-21T14:32:15.081Z,12.38
2022-11-21T14:34:41.850Z,15.52
2022-11-21T14:37:08.860Z,14.10
2022-11-21T14:39:44.548Z,16.15
2022-11-21T14:42:15.773Z,14.55
2022-11-21T14:44:43.232Z,15.35
2022-11-21T14:47:26.250Z,14.85
2022-11-21T14:49:57.678Z,14.65
2022-11-21T14:52:32.747Z,14.95
2022-11-21T14:55:29.002Z,14.90
2022-11-21T14:57:54.915Z,12.70
2022-11-21T15:03:22.170Z,41.47
2022-11-21T15:06:08.289Z,24.10
2022-11-21T15:09:33.281Z,17.48
2022-11-21T15:11:35.052Z,13.85
2022-11-21T15:14:20.149Z,13.40
2022-11-21T15:16:51.024Z,16.35
2022-11-21T15:19:27.678Z,15.27
2022-11-21T15:21:58.187Z,13.75
2022-11-21T15:24:43.425Z,14.40
2022-11-21T15:27:28.562Z,14.00
2022-11-21T15:30:23.617Z,15.95
2022-11-21T15:33:18.016Z,18.30
2022-11-21T15:35:56.347Z,13.95
2022-11-21T15:38:32.255Z,13.32
2022-11-21T15:41:07.025Z,13.98
2022-11-21T15:43:45.206Z,15.40
2022-11-21T15:46:30.846Z,14.07
2022-11-21T15:49:31.340Z,13.55
2022-11-21T15:52:10.519Z,12.40
2022-11-21T15:54:38.093Z,12.45
2022-11-21T15:57:05.417Z,13.38
2022-11-21T15:59:32.543Z,14.75
2022-11-21T16:01:59.627Z,15.77
2022-11-21T16:04:27.262Z,17.88
2022-11-21T16:06:55.010Z,17.83
2022-11-21T16:09:21.883Z,17.58
2022-11-21T16:11:48.702Z,16.88
2022-11-21T16:14:18.535Z,15.60
2022-11-21T16:16:47.582Z,15.88
2022-11-21T16:19:15.714Z,16.85
2022-11-21T16:21:43.285Z,15.85
2022-11-21T16:24:10.126Z,18.20
2022-11-21T16:26:36.995Z,17.08
2022-11-21T16:29:07.144Z,19.60
2022-11-21T16:31:34.315Z,17.65
2022-11-21T16:34:01.234Z,16.02
2022-11-21T16:36:30.638Z,17.02
2022-11-21T16:39:01.799Z,16.75
2022-11-21T16:41:30.341Z,17.67
2022-11-21T16:43:57.109Z,15.75
2022-11-21T16:46:25.956Z,17.55
2022-11-21T16:49:00.799Z,17.15
2022-11-21T16:51:29.040Z,18.23
2022-11-21T16:53:57.545Z,17.45
2022-11-21T16:56:24.610Z,18.85
2022-11-21T16:58:51.681Z,19.60
2022-11-21T17:01:21.814Z,17.85
2022-11-21T17:03:49.906Z,19.27
2022-11-21T17:06:23.969Z,17.33
2022-11-21T17:11:29.072Z,19.52
2022-11-21T17:14:01.723Z,20.67
2022-11-21T17:16:29.184Z,21.88
2022-11-21T17:18:58.691Z,19.20
2022-11-21T17:21:27.532Z,17.48
2022-11-21T17:23:54.934Z,20.02
2022-11-21T17:26:25.976Z,20.25
2022-11-21T17:28:59.472Z,20.60
2022-11-21T17:31:27.432Z,21.25
2022-11-21T17:33:57.177Z,22.20
2022-11-21T17:36:26.963Z,21.23
2022-11-21T17:38:54.581Z,21.98
2022-11-21T17:41:24.092Z,21.02
2022-11-21T17:43:59.708Z,21.67
2022-11-21T17:46:28.196Z,20.27
2022-11-21T17:48:58.787Z,18.80
2022-11-21T17:51:34.284Z,24.42
2022-11-21T17:54:02.216Z,19.67
2022-11-21T17:56:32.946Z,19.35
2022-11-21T17:58:59.929Z,19.65
2022-11-21T18:01:27.148Z,23.63
2022-11-21T18:03:59.020Z,20.70
2022-11-21T18:06:38.271Z,23.42
2022-11-21T18:09:07.599Z,21.95
2022-11-21T18:11:39.457Z,21.52
2022-11-21T18:14:09.587Z,20.17
2022-11-21T18:16:37.139Z,20.58
2022-11-21T18:19:03.938Z,21.30
2022-11-21T18:21:33.345Z,19.58
2022-11-21T18:24:00.536Z,19.58
2022-11-21T18:26:34.068Z,19.17
2022-11-21T18:31:50.588Z,19.25
2022-11-21T18:34:17.288Z,22.75
2022-11-21T18:36:44.047Z,20.05
2022-11-21T18:39:14.683Z,20.45
2022-11-21T18:41:43.098Z,21.05
2022-11-21T18:44:10.514Z,20.33
2022-11-21T18:46:38.689Z,19.38
2022-11-21T18:49:07.827Z,19.35
2022-11-21T18:51:36.353Z,20.65
2022-11-21T18:54:08.577Z,22.50
2022-11-21T18:56:37.681Z,18.85
2022-11-21T18:59:06.285Z,18.67
2022-11-21T19:01:35.461Z,20.85
2022-11-21T19:04:02.763Z,21.17
2022-11-21T19:06:29.692Z,22.15
2022-11-21T19:08:58.490Z,19.58
2022-11-21T19:11:28.790Z,21.42
2022-11-21T19:13:57.865Z,22.40
2022-11-21T19:16:27.624Z,22.65
2022-11-21T19:21:43.067Z,20.20
2022-11-21T19:24:14.771Z,20.90
2022-11-21T19:26:42.731Z,19.55
2022-11-21T19:29:10.890Z,22.95
2022-11-21T19:31:44.842Z,22.77
2022-11-21T19:34:13.973Z,22.50
2022-11-21T19:36:41.363Z,21.58
2022-11-21T19:39:08.928Z,19.23
2022-11-21T19:41:35.705Z,21.23
2022-11-21T19:44:02.870Z,22.33
2022-11-21T19:46:38.916Z,19.45
2022-11-21T19:49:08.071Z,22.05
2022-11-21T19:51:41.846Z,20.77
2022-11-21T19:54:10.884Z,19.77
2022-11-21T19:56:37.926Z,18.90
2022-11-21T19:59:05.849Z,17.65
2022-11-21T20:01:34.515Z,18.75
2022-11-21T20:04:04.330Z,18.75
2022-11-21T20:06:35.176Z,17.52
2022-11-21T20:09:15.655Z,18.48
2022-11-21T20:11:45.869Z,17.65
2022-11-21T20:14:19.659Z,18.35
2022-11-21T20:16:50.125Z,18.58
2022-11-21T20:19:20.897Z,18.88
2022-11-21T20:21:48.215Z,17.67
2022-11-21T20:24:15.817Z,18.67
2022-11-21T20:26:44.274Z,20.13
2022-11-21T20:29:14.124Z,18.50
2022-11-21T20:31:42.437Z,17.75
2022-11-21T20:34:13.013Z,19.33
2022-11-21T20:36:41.485Z,19.50
2022-11-21T20:39:15.909Z,17.45
2022-11-21T20:41:43.427Z,17.08
2022-11-21T20:47:02.522Z,15.63
2022-11-21T20:49:29.395Z,15.25
2022-11-21T20:54:43.103Z,15.25
2022-11-21T20:57:14.817Z,13.45
2022-11-21T20:59:42.089Z,14.95
2022-11-21T21:02:12.200Z,14.55
2022-11-21T21:04:39.367Z,16.38
2022-11-21T21:07:06.404Z,14.07
2022-11-21T21:09:33.227Z,13.80
2022-11-21T21:11:59.996Z,16.63
2022-11-21T21:14:26.742Z,17.83
2022-11-21T21:16:53.490Z,17.42
2022-11-21T21:19:22.678Z,17.20
2022-11-21T21:21:49.462Z,17.00
2022-11-21T21:24:17.194Z,16.10
2022-11-21T21:26:47.143Z,17.35
2022-11-21T21:29:20.600Z,13.48
2022-11-21T21:31:51.497Z,14.52
2022-11-21T21:34:21.858Z,16.05
2022-11-21T21:36:49.388Z,16.55
2022-11-21T21:39:16.211Z,15.90
2022-11-21T21:41:47.106Z,16.40
2022-11-21T21:44:14.555Z,20.17
2022-11-21T21:46:41.342Z,18.75
2022-11-21T21:49:08.465Z,18.95
2022-11-21T21:51:37.390Z,16.98
2022-11-21T21:54:04.798Z,16.00
2022-11-21T21:56:31.541Z,17.67
2022-11-21T21:58:59.355Z,16.58
2022-11-21T22:01:29.484Z,16.70
2022-11-21T22:04:03.116Z,17.73
2022-11-21T22:06:33.182Z,17.50
2022-11-21T22:09:00.226Z,15.70
2022-11-21T22:11:35.194Z,18.98
2022-11-21T22:14:06.038Z,17.02
2022-11-21T22:16:33.433Z,18.65
2022-11-21T22:19:00.412Z,18.60
2022-11-21T22:21:33.061Z,19.23
2022-11-21T22:24:24.884Z,18.20
2022-11-21T22:26:49.346Z,19.23
2022-11-21T22:29:16.276Z,18.05
2022-11-21T22:31:43.218Z,18.60
2022-11-21T22:34:13.447Z,15.93
2022-11-21T22:36:40.910Z,17.88
2022-11-21T22:39:07.756Z,18.60
2022-11-21T22:41:34.610Z,18.02
2022-11-21T22:44:01.344Z,17.20
2022-11-21T22:46:30.295Z,18.48
2022-11-21T22:48:58.037Z,16.98
2022-11-21T22:51:29.523Z,16.20
2022-11-21T22:53:57.151Z,16.98
2022-11-21T22:56:24.893Z,15.68
2022-11-21T22:58:51.906Z,16.45
2022-11-21T23:01:22.070Z,17.85
2022-11-21T23:03:49.515Z,14.90
2022-11-21T23:06:23.622Z,16.80
2022-11-21T23:08:55.715Z,20.27
2022-11-21T23:11:27.716Z,15.95
2022-11-21T23:13:56.409Z,17.60
2022-11-21T23:16:23.783Z,17.77
2022-11-21T23:18:53.824Z,18.13
2022-11-21T23:21:21.312Z,17.88
2022-11-21T23:23:48.502Z,16.27
2022-11-21T23:26:15.726Z,15.82
2022-11-21T23:28:42.476Z,17.33
2022-11-21T23:31:10.745Z,16.15
2022-11-21T23:33:37.608Z,15.23
2022-11-21T23:36:04.802Z,15.50
2022-11-21T23:38:31.661Z,16.60
2022-11-21T23:40:58.961Z,14.80
2022-11-21T23:43:25.719Z,16.10
2022-11-21T23:45:53.808Z,15.32
2022-11-21T23:48:21.788Z,16.70
2022-11-21T23:50:51.203Z,15.85
2022-11-21T23:53:19.508Z,15.98
2022-11-21T23:55:47.379Z,15.82
2022-11-21T23:58:14.722Z,15.40
